Time;durP1;ratioP1;P1;durP2;ratioP2;P2;SDS_P1;SDS_P2;PMS_P1;PMS_P2;Temp;Humidity;BMP_temperature;BMP_pressure;BME280_temperature;BME280_humidity;BME280_pressure;Samples;Min_cycle;Max_cycle;Signal;HPM_P1;HPM_P2
2023/03/10 00:01:18;;;;;;;5.27;2.97;;;;;;;;;;5075375;28;20274;-56
2023/03/10 00:03:44;;;;;;;6.17;3.30;;;;;;;;;;5079783;28;20185;-56
2023/03/10 00:06:12;;;;;;;8.70;3.20;;;;;;;;;;5078418;28;20188;-56
2023/03/10 00:08:38;;;;;;;6.87;3.10;;;;;;;;;;5080772;28;20270;-56
2023/03/10 00:11:04;;;;;;;5.60;3.20;;;;;;;;;;5083610;28;20219;-56
2023/03/10 00:13:30;;;;;;;3.63;2.90;;;;;;;;;;5074759;28;20208;-56
2023/03/10 00:15:56;;;;;;;6.00;3.10;;;;;;;;;;5072432;28;20263;-56
2023/03/10 00:18:22;;;;;;;7.00;3.13;;;;;;;;;;5082466;28;20183;-56
2023/03/10 00:20:52;;;;;;;3.53;2.80;;;;;;;;;;5085135;28;20195;-56
2023/03/10 00:23:18;;;;;;;7.10;3.17;;;;;;;;;;5079076;28;20248;-56
2023/03/10 00:25:44;;;;;;;6.73;3.13;;;;;;;;;;5088525;28;20179;-56
2023/03/10 00:28:10;;;;;;;5.50;2.70;;;;;;;;;;5098396;28;20171;-56
2023/03/10 00:30:36;;;;;;;3.03;2.43;;;;;;;;;;5096954;28;20231;-56
2023/03/10 00:33:02;;;;;;;5.47;2.50;;;;;;;;;;5093017;28;20754;-56
2023/03/10 00:35:28;;;;;;;5.90;2.80;;;;;;;;;;5091781;28;20479;-56
2023/03/10 00:37:55;;;;;;;3.57;2.30;;;;;;;;;;5094031;28;20707;-56
2023/03/10 00:40:21;;;;;;;5.83;3.10;;;;;;;;;;5082308;28;20181;-56
2023/03/10 00:42:47;;;;;;;5.83;3.03;;;;;;;;;;5089625;28;20176;-56
2023/03/10 00:45:13;;;;;;;5.03;2.83;;;;;;;;;;5086956;28;20714;-56
2023/03/10 00:47:39;;;;;;;4.63;2.80;;;;;;;;;;5089388;28;20224;-55
2023/03/10 00:50:05;;;;;;;4.90;2.37;;;;;;;;;;5085843;28;20173;-56
2023/03/10 00:52:32;;;;;;;5.03;2.70;;;;;;;;;;5069280;28;20215;-56
2023/03/10 00:54:58;;;;;;;5.33;2.70;;;;;;;;;;5081322;28;20612;-56
2023/03/10 00:57:24;;;;;;;3.67;2.67;;;;;;;;;;5087534;28;20171;-56
2023/03/10 00:59:50;;;;;;;8.67;3.07;;;;;;;;;;5087504;28;20199;-57
2023/03/10 01:02:20;;;;;;;4.13;2.83;;;;;;;;;;5090216;28;20172;-59
2023/03/10 01:04:47;;;;;;;2.83;1.93;;;;;;;;;;5088108;28;20251;-56
2023/03/10 01:07:13;;;;;;;4.33;2.13;;;;;;;;;;5099060;28;20204;-56
2023/03/10 01:09:39;;;;;;;4.33;1.90;;;;;;;;;;5083785;28;20193;-56
2023/03/10 01:12:05;;;;;;;2.07;1.80;;;;;;;;;;5068772;28;20188;-56
2023/03/10 01:14:31;;;;;;;2.27;1.80;;;;;;;;;;5078256;28;20681;-56
2023/03/10 01:16:58;;;;;;;5.80;2.20;;;;;;;;;;5089131;28;20176;-56
2023/03/10 01:19:24;;;;;;;2.20;2.00;;;;;;;;;;5087547;28;20187;-56
2023/03/10 01:21:50;;;;;;;2.43;2.03;;;;;;;;;;5087498;28;20632;-56
2023/03/10 01:24:16;;;;;;;2.50;2.30;;;;;;;;;;5081052;28;20306;-55
2023/03/10 01:26:42;;;;;;;2.37;2.17;;;;;;;;;;5068965;28;20164;-56
2023/03/10 01:29:08;;;;;;;2.77;2.53;;;;;;;;;;5074924;28;20192;-57
2023/03/10 01:31:34;;;;;;;2.73;2.37;;;;;;;;;;5073260;28;20224;-56
2023/03/10 01:34:00;;;;;;;4.90;2.67;;;;;;;;;;5082376;28;20199;-56
2023/03/10 01:36:27;;;;;;;3.57;2.50;;;;;;;;;;5100541;28;20163;-56
2023/03/10 01:38:54;;;;;;;4.60;2.73;;;;;;;;;;5097091;28;20286;-56
2023/03/10 01:41:21;;;;;;;5.77;3.00;;;;;;;;;;5089490;28;20801;-56
2023/03/10 01:43:50;;;;;;;3.70;2.63;;;;;;;;;;5086158;28;20639;-56
2023/03/10 01:46:31;;;;;;;4.50;3.07;;;;;;;;;;5080489;28;20593;-56
2023/03/10 01:49:00;;;;;;;3.30;3.00;;;;;;;;;;5086138;28;20188;-55
2023/03/10 01:51:27;;;;;;;4.27;3.00;;;;;;;;;;5082369;28;20179;-56
2023/03/10 01:53:53;;;;;;;3.90;2.80;;;;;;;;;;5086392;28;20210;-56
2023/03/10 01:56:19;;;;;;;3.07;2.73;;;;;;;;;;5087949;28;20172;-55
2023/03/10 01:58:45;;;;;;;3.57;2.70;;;;;;;;;;5087078;28;20538;-55
2023/03/10 02:01:12;;;;;;;3.50;2.60;;;;;;;;;;5077076;28;20214;-60
2023/03/10 02:03:45;;;;;;;2.50;2.30;;;;;;;;;;5077746;28;20592;-56
2023/03/10 02:06:14;;;;;;;4.93;2.67;;;;;;;;;;5086910;28;20180;-56
2023/03/10 02:08:45;;;;;;;3.03;2.50;;;;;;;;;;5086600;28;20167;-55
2023/03/10 02:11:11;;;;;;;3.67;2.40;;;;;;;;;;5089179;28;20214;-56
2023/03/10 02:13:37;;;;;;;2.93;2.50;;;;;;;;;;5087990;28;20217;-56
2023/03/10 02:16:04;;;;;;;3.57;2.50;;;;;;;;;;5073462;28;20209;-55
2023/03/10 02:18:30;;;;;;;2.70;2.27;;;;;;;;;;5086638;28;20214;-56
2023/03/10 02:21:05;;;;;;;3.00;2.10;;;;;;;;;;5084362;28;20179;-56
2023/03/10 02:23:41;;;;;;;2.63;2.00;;;;;;;;;;5087258;28;20695;-56
2023/03/10 02:26:21;;;;;;;2.60;2.40;;;;;;;;;;5087000;28;20197;-58
2023/03/10 02:28:47;;;;;;;2.33;2.03;;;;;;;;;;5078383;28;20244;-55
2023/03/10 02:31:14;;;;;;;4.23;2.30;;;;;;;;;;5085398;28;20285;-56
2023/03/10 02:33:42;;;;;;;2.53;2.17;;;;;;;;;;5090908;28;20287;-56
2023/03/10 02:36:16;;;;;;;2.20;2.00;;;;;;;;;;5087105;28;20179;-56
2023/03/10 02:38:42;;;;;;;2.60;2.40;;;;;;;;;;5092034;28;20675;-56
2023/03/10 02:41:29;;;;;;;2.20;2.00;;;;;;;;;;5090311;28;20614;-55
2023/03/10 02:43:58;;;;;;;2.57;2.37;;;;;;;;;;5089933;28;20258;-56
2023/03/10 02:46:24;;;;;;;2.77;2.40;;;;;;;;;;5089924;28;20233;-56
2023/03/10 02:48:50;;;;;;;2.33;2.10;;;;;;;;;;5084179;28;20185;-56
2023/03/10 02:51:22;;;;;;;3.43;2.20;;;;;;;;;;5082845;28;20545;-56
2023/03/10 02:53:48;;;;;;;3.37;2.17;;;;;;;;;;5087456;28;20192;-56
2023/03/10 02:56:14;;;;;;;2.30;2.10;;;;;;;;;;5084970;28;20175;-56
2023/03/10 02:58:40;;;;;;;2.47;2.00;;;;;;;;;;5090291;28;20251;-56
2023/03/10 03:01:07;;;;;;;2.60;2.10;;;;;;;;;;5071953;28;20332;-56
2023/03/10 03:03:33;;;;;;;3.03;2.07;;;;;;;;;;5091088;28;20194;-56
2023/03/10 03:05:59;;;;;;;2.00;1.80;;;;;;;;;;5090324;28;20514;-56
2023/03/10 03:08:25;;;;;;;2.23;2.03;;;;;;;;;;5090441;28;20706;-56
2023/03/10 03:10:51;;;;;;;1.77;1.60;;;;;;;;;;5090999;28;20283;-56
2023/03/10 03:13:17;;;;;;;2.17;1.97;;;;;;;;;;5099842;28;20271;-56
2023/03/10 03:15:43;;;;;;;1.87;1.77;;;;;;;;;;5096880;28;20548;-56
2023/03/10 03:18:09;;;;;;;2.10;1.90;;;;;;;;;;5091316;28;20476;-56
2023/03/10 03:20:36;;;;;;;2.47;2.27;;;;;;;;;;5090695;28;20274;-56
2023/03/10 03:23:02;;;;;;;2.20;1.80;;;;;;;;;;5089718;28;20210;-56
2023/03/10 03:25:29;;;;;;;2.80;1.73;;;;;;;;;;5092948;28;20492;-57
2023/03/10 03:27:55;;;;;;;1.67;1.57;;;;;;;;;;5109245;28;20207;-56
2023/03/10 03:33:25;;;;;;;2.20;2.00;;;;;;;;;;5070359;28;20203;-58
2023/03/10 03:35:51;;;;;;;1.60;1.47;;;;;;;;;;5080626;28;20238;-56
2023/03/10 03:38:17;;;;;;;2.33;2.03;;;;;;;;;;5070320;28;20176;-56
2023/03/10 03:40:44;;;;;;;3.57;2.10;;;;;;;;;;5070635;28;20713;-56
2023/03/10 03:43:11;;;;;;;2.33;1.73;;;;;;;;;;5070631;28;20189;-56
2023/03/10 03:45:37;;;;;;;2.70;1.90;;;;;;;;;;5070739;28;20219;-56
2023/03/10 03:48:03;;;;;;;2.83;1.70;;;;;;;;;;5072557;28;20199;-56
2023/03/10 03:50:29;;;;;;;1.90;1.70;;;;;;;;;;5069561;28;20654;-56
2023/03/10 03:52:56;;;;;;;3.73;1.70;;;;;;;;;;5069284;28;20450;-55
2023/03/10 03:55:22;;;;;;;1.33;1.23;;;;;;;;;;5069755;28;20267;-55
2023/03/10 03:57:48;;;;;;;1.87;1.60;;;;;;;;;;5070743;28;20573;-55
2023/03/10 04:00:18;;;;;;;5.77;1.63;;;;;;;;;;5068358;28;20181;-55
2023/03/10 04:02:44;;;;;;;1.67;1.57;;;;;;;;;;5070454;28;20646;-55
2023/03/10 04:05:10;;;;;;;2.83;1.60;;;;;;;;;;5066948;28;20591;-55
2023/03/10 04:07:38;;;;;;;1.80;1.53;;;;;;;;;;5063818;28;20176;-56
2023/03/10 04:10:04;;;;;;;1.50;1.40;;;;;;;;;;5069226;28;20718;-56
2023/03/10 04:12:30;;;;;;;2.10;1.57;;;;;;;;;;5070130;28;20615;-56
2023/03/10 04:14:57;;;;;;;1.77;1.50;;;;;;;;;;5066654;28;20233;-56
2023/03/10 04:17:23;;;;;;;2.10;1.90;;;;;;;;;;5068559;28;20208;-56
2023/03/10 04:19:49;;;;;;;1.20;1.20;;;;;;;;;;5067844;28;20188;-56
2023/03/10 04:22:15;;;;;;;1.83;1.70;;;;;;;;;;5066407;28;20203;-56
2023/03/10 04:24:41;;;;;;;3.27;1.70;;;;;;;;;;5069581;28;20664;-56
2023/03/10 04:27:08;;;;;;;1.90;1.80;;;;;;;;;;5068658;28;20200;-56
2023/03/10 04:29:35;;;;;;;1.87;1.53;;;;;;;;;;5062326;28;20211;-57
2023/03/10 04:32:01;;;;;;;2.80;2.50;;;;;;;;;;5097789;28;20218;-56
2023/03/10 04:34:27;;;;;;;5.97;1.93;;;;;;;;;;5109648;28;20195;-56
2023/03/10 04:36:53;;;;;;;2.57;1.60;;;;;;;;;;5095227;28;20215;-56
2023/03/10 04:39:19;;;;;;;1.53;1.40;;;;;;;;;;5082785;28;20180;-56
2023/03/10 04:41:45;;;;;;;2.30;1.87;;;;;;;;;;5089645;28;20248;-56
2023/03/10 04:44:11;;;;;;;1.50;1.40;;;;;;;;;;5088602;28;20639;-56
2023/03/10 04:46:37;;;;;;;2.17;1.50;;;;;;;;;;5089540;28;20635;-56
2023/03/10 04:49:03;;;;;;;1.97;1.73;;;;;;;;;;5089936;28;20698;-57
2023/03/10 04:51:30;;;;;;;1.43;1.33;;;;;;;;;;5102232;28;20631;-56
2023/03/10 04:53:56;;;;;;;1.17;1.03;;;;;;;;;;5084931;28;20645;-56
2023/03/10 04:56:23;;;;;;;1.70;1.60;;;;;;;;;;5085211;28;20176;-56
2023/03/10 04:58:50;;;;;;;1.40;1.30;;;;;;;;;;5089495;28;20211;-56
2023/03/10 05:01:16;;;;;;;2.93;2.57;;;;;;;;;;5089050;28;20175;-56
2023/03/10 05:03:42;;;;;;;2.60;1.40;;;;;;;;;;5088605;28;20194;-56
2023/03/10 05:06:14;;;;;;;1.80;1.53;;;;;;;;;;5104859;28;20222;-56
2023/03/10 05:08:40;;;;;;;2.90;1.13;;;;;;;;;;5087384;28;20176;-56
2023/03/10 05:11:06;;;;;;;1.80;1.63;;;;;;;;;;5088499;28;20298;-56
2023/03/10 05:13:33;;;;;;;2.13;1.50;;;;;;;;;;5088572;28;20212;-56
2023/03/10 05:15:59;;;;;;;1.80;1.40;;;;;;;;;;5088206;28;20175;-56
2023/03/10 05:18:25;;;;;;;1.47;1.33;;;;;;;;;;5092195;28;20176;-56
2023/03/10 05:20:55;;;;;;;2.00;1.50;;;;;;;;;;5088433;28;20195;-56
2023/03/10 05:23:21;;;;;;;2.67;2.47;;;;;;;;;;5097526;28;20182;-56
2023/03/10 05:25:47;;;;;;;2.17;1.73;;;;;;;;;;5089702;28;20179;-57
2023/03/10 05:28:13;;;;;;;1.30;1.20;;;;;;;;;;5086394;28;20190;-56
2023/03/10 05:30:39;;;;;;;1.93;1.50;;;;;;;;;;5086011;28;20180;-56
2023/03/10 05:33:05;;;;;;;2.67;2.03;;;;;;;;;;5099747;28;20218;-56
2023/03/10 05:35:31;;;;;;;3.03;1.50;;;;;;;;;;5083299;28;20172;-56
2023/03/10 05:37:57;;;;;;;3.20;1.60;;;;;;;;;;5083637;28;20194;-56
2023/03/10 05:40:23;;;;;;;3.27;2.37;;;;;;;;;;5087787;28;20186;-56
2023/03/10 05:42:49;;;;;;;5.43;1.60;;;;;;;;;;5093224;28;20739;-56
2023/03/10 05:45:16;;;;;;;2.40;1.50;;;;;;;;;;5085932;28;20183;-56
2023/03/10 05:47:44;;;;;;;2.10;1.77;;;;;;;;;;5101074;28;20167;-56
2023/03/10 05:50:10;;;;;;;1.77;1.67;;;;;;;;;;5094833;28;20649;-56
2023/03/10 05:52:38;;;;;;;3.77;2.53;;;;;;;;;;5074227;28;20210;-56
2023/03/10 05:55:04;;;;;;;1.53;1.40;;;;;;;;;;5077339;28;20644;-56
2023/03/10 05:57:30;;;;;;;2.67;1.60;;;;;;;;;;5083181;28;20363;-56
2023/03/10 05:59:56;;;;;;;8.03;2.30;;;;;;;;;;5085385;28;20257;-56
2023/03/10 06:02:22;;;;;;;3.73;1.87;;;;;;;;;;5086638;28;20515;-57
2023/03/10 06:04:48;;;;;;;3.23;2.23;;;;;;;;;;5086474;28;20190;-57
2023/03/10 06:07:14;;;;;;;3.20;1.80;;;;;;;;;;5085677;28;20244;-57
2023/03/10 06:09:40;;;;;;;2.33;1.77;;;;;;;;;;5086182;28;20201;-57
2023/03/10 06:12:07;;;;;;;3.37;1.77;;;;;;;;;;5073032;28;20212;-57
2023/03/10 06:14:33;;;;;;;3.07;1.53;;;;;;;;;;5066699;28;20312;-56
2023/03/10 06:16:59;;;;;;;3.70;1.87;;;;;;;;;;5084914;28;20172;-56
2023/03/10 06:19:26;;;;;;;4.47;1.87;;;;;;;;;;5084169;28;20188;-57
2023/03/10 06:21:52;;;;;;;3.93;2.10;;;;;;;;;;5089837;28;20198;-57
2023/03/10 06:24:19;;;;;;;3.63;1.97;;;;;;;;;;5068823;28;20180;-57
2023/03/10 06:26:45;;;;;;;2.10;1.87;;;;;;;;;;5087821;28;20187;-56
2023/03/10 06:29:11;;;;;;;3.80;1.97;;;;;;;;;;5106859;28;20175;-57
2023/03/10 06:31:37;;;;;;;2.73;1.70;;;;;;;;;;5082444;28;20742;-57
2023/03/10 06:34:03;;;;;;;2.30;1.50;;;;;;;;;;5095372;28;20196;-57
2023/03/10 06:36:32;;;;;;;3.20;1.73;;;;;;;;;;5090512;28;20199;-57
2023/03/10 06:38:58;;;;;;;4.20;1.97;;;;;;;;;;5093019;28;20194;-56
2023/03/10 06:41:26;;;;;;;4.07;1.67;;;;;;;;;;5090619;28;20182;-56
2023/03/10 06:43:52;;;;;;;3.30;1.77;;;;;;;;;;5088535;28;20183;-61
2023/03/10 06:46:18;;;;;;;3.33;1.63;;;;;;;;;;5087219;28;20639;-60
2023/03/10 06:48:45;;;;;;;4.17;1.70;;;;;;;;;;5089337;28;20190;-58
2023/03/10 06:51:15;;;;;;;6.27;1.83;;;;;;;;;;5087918;28;20599;-54
2023/03/10 06:53:42;;;;;;;3.43;1.60;;;;;;;;;;5081446;28;20196;-54
2023/03/10 06:56:11;;;;;;;5.60;1.80;;;;;;;;;;5082741;28;20183;-54
2023/03/10 06:58:37;;;;;;;1.80;1.50;;;;;;;;;;5076892;28;20487;-54
2023/03/10 07:01:04;;;;;;;3.20;2.07;;;;;;;;;;5085877;28;20172;-54
2023/03/10 07:03:30;;;;;;;5.53;1.67;;;;;;;;;;5085869;28;20690;-55
2023/03/10 07:05:59;;;;;;;2.30;1.60;;;;;;;;;;5089457;28;20176;-54
2023/03/10 07:08:26;;;;;;;2.03;1.70;;;;;;;;;;5081937;28;20187;-55
2023/03/10 07:10:52;;;;;;;4.87;2.57;;;;;;;;;;5087397;28;20196;-54
2023/03/10 07:13:20;;;;;;;4.50;1.50;;;;;;;;;;5101547;28;20583;-54
2023/03/10 07:15:46;;;;;;;3.67;1.73;;;;;;;;;;5087892;28;20259;-53
2023/03/10 07:18:12;;;;;;;5.53;1.93;;;;;;;;;;5088888;28;20171;-53
2023/03/10 07:20:39;;;;;;;2.07;1.60;;;;;;;;;;5087850;28;20163;-54
2023/03/10 07:23:05;;;;;;;6.47;2.10;;;;;;;;;;5090380;28;20183;-54
2023/03/10 07:25:34;;;;;;;4.60;2.20;;;;;;;;;;5090602;28;20515;-54
2023/03/10 07:28:00;;;;;;;2.40;1.93;;;;;;;;;;5090239;28;20176;-53
2023/03/10 07:30:26;;;;;;;2.67;1.80;;;;;;;;;;5089372;28;20163;-54
2023/03/10 07:32:52;;;;;;;6.37;2.27;;;;;;;;;;5090920;28;20226;-53
2023/03/10 07:35:18;;;;;;;2.83;1.70;;;;;;;;;;5090299;28;20223;-53
2023/03/10 07:37:44;;;;;;;5.13;2.40;;;;;;;;;;5090326;28;20627;-53
2023/03/10 07:40:10;;;;;;;1.97;1.60;;;;;;;;;;5090413;28;20167;-53
2023/03/10 07:42:36;;;;;;;2.63;1.63;;;;;;;;;;5090535;28;20180;-53
2023/03/10 07:45:03;;;;;;;4.83;2.10;;;;;;;;;;5088598;28;20195;-53
2023/03/10 07:47:29;;;;;;;2.63;1.60;;;;;;;;;;5090212;28;20276;-54
2023/03/10 07:49:55;;;;;;;2.97;1.60;;;;;;;;;;5084214;28;20203;-53
2023/03/10 07:52:21;;;;;;;5.70;1.90;;;;;;;;;;5081710;28;20219;-53
2023/03/10 07:54:47;;;;;;;2.80;2.10;;;;;;;;;;5078104;28;20737;-54
2023/03/10 07:57:14;;;;;;;3.50;1.87;;;;;;;;;;5089751;28;20230;-53
2023/03/10 07:59:40;;;;;;;3.10;1.80;;;;;;;;;;5089059;28;20164;-53
2023/03/10 08:02:06;;;;;;;3.00;1.77;;;;;;;;;;5090142;28;20180;-53
2023/03/10 08:04:33;;;;;;;4.37;2.00;;;;;;;;;;5089106;28;20413;-53
2023/03/10 08:07:01;;;;;;;3.43;2.07;;;;;;;;;;5090291;28;20282;-53
2023/03/10 08:09:27;;;;;;;3.87;1.73;;;;;;;;;;5087754;28;20186;-54
2023/03/10 08:11:53;;;;;;;6.87;2.30;;;;;;;;;;5086864;28;20245;-54
2023/03/10 08:14:22;;;;;;;3.40;2.03;;;;;;;;;;5086704;28;20206;-53
2023/03/10 08:16:49;;;;;;;3.10;2.07;;;;;;;;;;5088149;28;20496;-54
2023/03/10 08:19:15;;;;;;;6.10;2.80;;;;;;;;;;5079053;28;20168;-53
2023/03/10 08:21:42;;;;;;;2.73;1.93;;;;;;;;;;5083246;28;20171;-53
2023/03/10 08:24:08;;;;;;;4.83;2.40;;;;;;;;;;5080886;28;20191;-53
2023/03/10 08:26:34;;;;;;;4.53;2.00;;;;;;;;;;5073861;28;20188;-54
2023/03/10 08:29:00;;;;;;;4.00;1.90;;;;;;;;;;5084057;28;20191;-54
2023/03/10 08:31:26;;;;;;;3.70;1.90;;;;;;;;;;5085884;28;20243;-54
2023/03/10 08:33:56;;;;;;;4.23;1.97;;;;;;;;;;5084790;28;20678;-54
2023/03/10 08:36:23;;;;;;;4.67;2.03;;;;;;;;;;5089166;28;20178;-53
2023/03/10 08:38:50;;;;;;;8.47;2.37;;;;;;;;;;5088464;28;20241;-53
2023/03/10 08:41:21;;;;;;;4.73;1.90;;;;;;;;;;5095664;28;20179;-53
2023/03/10 08:43:49;;;;;;;4.57;2.00;;;;;;;;;;5089170;28;20634;-54
2023/03/10 08:46:15;;;;;;;4.80;1.90;;;;;;;;;;5068167;28;20615;-54
2023/03/10 08:48:41;;;;;;;2.83;1.80;;;;;;;;;;5079184;28;20175;-54
2023/03/10 08:51:07;;;;;;;5.90;2.20;;;;;;;;;;5069136;28;20183;-54
2023/03/10 08:53:34;;;;;;;3.60;1.80;;;;;;;;;;5086462;28;20195;-54
2023/03/10 08:56:00;;;;;;;4.77;2.00;;;;;;;;;;5085670;28;20182;-53
2023/03/10 08:58:26;;;;;;;6.40;2.50;;;;;;;;;;5089140;28;20763;-54
2023/03/10 09:00:52;;;;;;;3.77;2.43;;;;;;;;;;5074434;28;20238;-54
2023/03/10 09:03:19;;;;;;;4.03;2.63;;;;;;;;;;5075566;28;20195;-54
2023/03/10 09:05:45;;;;;;;3.27;2.37;;;;;;;;;;5084660;28;20233;-53
2023/03/10 09:08:11;;;;;;;5.67;2.17;;;;;;;;;;5077934;28;20202;-53
2023/03/10 09:10:39;;;;;;;3.80;1.67;;;;;;;;;;5083973;28;20256;-53
2023/03/10 09:13:05;;;;;;;3.97;2.10;;;;;;;;;;5083731;28;20616;-53
2023/03/10 09:15:33;;;;;;;4.03;2.87;;;;;;;;;;5081129;28;20160;-57
2023/03/10 09:18:00;;;;;;;5.53;1.90;;;;;;;;;;5081998;28;20213;-56
2023/03/10 09:20:26;;;;;;;3.47;1.70;;;;;;;;;;5078654;28;20682;-57
2023/03/10 09:22:53;;;;;;;2.27;1.70;;;;;;;;;;5088307;28;20263;-56
2023/03/10 09:25:19;;;;;;;7.23;2.17;;;;;;;;;;5085488;28;20172;-57
2023/03/10 09:27:45;;;;;;;4.87;1.97;;;;;;;;;;5084686;28;20477;-56
2023/03/10 09:30:12;;;;;;;3.20;2.10;;;;;;;;;;5084631;28;20220;-56
2023/03/10 09:32:38;;;;;;;3.33;1.97;;;;;;;;;;5082728;28;20223;-56
2023/03/10 09:35:04;;;;;;;3.60;1.87;;;;;;;;;;5085276;28;20222;-56
2023/03/10 09:37:31;;;;;;;3.83;2.10;;;;;;;;;;5084230;28;20516;-56
2023/03/10 09:39:57;;;;;;;2.40;1.87;;;;;;;;;;5083317;28;20661;-56
2023/03/10 09:42:29;;;;;;;3.13;2.30;;;;;;;;;;5084327;28;20217;-56
2023/03/10 09:45:04;;;;;;;5.40;2.23;;;;;;;;;;5073758;28;20180;-56
2023/03/10 09:47:32;;;;;;;3.03;1.90;;;;;;;;;;5078409;28;20225;-56
2023/03/10 09:50:10;;;;;;;4.33;2.10;;;;;;;;;;5083317;28;20180;-56
2023/03/10 09:52:39;;;;;;;5.10;2.00;;;;;;;;;;5080033;28;20188;-56
2023/03/10 09:55:05;;;;;;;3.20;2.03;;;;;;;;;;5080805;28;20183;-56
2023/03/10 09:57:32;;;;;;;8.03;2.20;;;;;;;;;;5086276;28;20172;-56
2023/03/10 10:00:00;;;;;;;4.80;2.10;;;;;;;;;;5066582;28;20295;-56
2023/03/10 10:02:32;;;;;;;3.40;2.20;;;;;;;;;;5068218;28;20275;-56
2023/03/10 10:05:00;;;;;;;6.37;2.00;;;;;;;;;;5084866;28;20218;-56
2023/03/10 10:07:27;;;;;;;3.00;1.83;;;;;;;;;;5082609;28;20176;-56
2023/03/10 10:09:58;;;;;;;5.27;2.57;;;;;;;;;;5086402;28;20266;-56
2023/03/10 10:12:25;;;;;;;3.37;1.90;;;;;;;;;;5085109;28;20200;-56
2023/03/10 10:14:58;;;;;;;4.67;1.90;;;;;;;;;;5086120;28;20206;-56
2023/03/10 10:17:34;;;;;;;4.47;2.50;;;;;;;;;;5085414;28;20266;-56
2023/03/10 10:20:00;;;;;;;4.83;2.40;;;;;;;;;;5082008;28;20206;-56
2023/03/10 10:22:27;;;;;;;4.63;1.90;;;;;;;;;;5084289;28;20194;-56
2023/03/10 10:24:59;;;;;;;6.70;2.13;;;;;;;;;;5076438;28;20192;-56
2023/03/10 10:27:25;;;;;;;4.23;2.73;;;;;;;;;;5081055;28;20180;-56
2023/03/10 10:29:52;;;;;;;3.37;2.30;;;;;;;;;;5077323;28;20182;-56
2023/03/10 10:32:18;;;;;;;4.37;2.30;;;;;;;;;;5079309;28;21074;-56
2023/03/10 10:34:45;;;;;;;6.50;2.30;;;;;;;;;;5077392;28;20295;-56
2023/03/10 10:37:31;;;;;;;3.90;1.77;;;;;;;;;;5080058;28;20180;-56
2023/03/10 10:39:58;;;;;;;3.93;1.70;;;;;;;;;;5079507;28;20267;-56
2023/03/10 10:42:26;;;;;;;5.13;2.57;;;;;;;;;;5083920;28;20175;-56
2023/03/10 10:44:53;;;;;;;5.67;2.50;;;;;;;;;;5081269;28;20184;-56
2023/03/10 10:47:33;;;;;;;5.33;1.90;;;;;;;;;;5084905;28;20176;-56
2023/03/10 10:50:17;;;;;;;4.33;2.10;;;;;;;;;;5085650;28;20292;-55
2023/03/10 10:52:49;;;;;;;4.57;2.07;;;;;;;;;;5083331;28;20199;-55
2023/03/10 10:55:25;;;;;;;3.43;2.10;;;;;;;;;;5078011;28;20206;-56
2023/03/10 10:57:56;;;;;;;6.87;2.47;;;;;;;;;;5089509;28;20187;-55
2023/03/10 11:00:28;;;;;;;4.40;2.13;;;;;;;;;;5088821;28;20334;-56
2023/03/10 11:02:55;;;;;;;6.00;2.33;;;;;;;;;;5089340;28;20655;-56
2023/03/10 11:05:22;;;;;;;5.67;2.33;;;;;;;;;;5090299;28;20216;-56
2023/03/10 11:07:49;;;;;;;6.07;2.80;;;;;;;;;;5085658;28;20226;-56
2023/03/10 11:10:19;;;;;;;4.00;1.80;;;;;;;;;;5084628;28;20359;-55
2023/03/10 11:12:56;;;;;;;6.00;2.20;;;;;;;;;;5089055;28;20222;-55
2023/03/10 11:16:00;;;;;;;5.87;1.90;;;;;;;;;;5087477;28;20228;-58
2023/03/10 11:18:51;;;;;;;6.00;2.10;;;;;;;;;;4983311;28;20306;-57
2023/03/10 11:21:26;;;;;;;2.80;1.87;;;;;;;;;;4984763;28;20330;-62
2023/03/10 11:24:01;;;;;;;3.00;1.97;;;;;;;;;;5053523;28;20686;-56
2023/03/10 11:26:37;;;;;;;7.17;2.30;;;;;;;;;;5087575;28;20172;-57
2023/03/10 11:29:12;;;;;;;4.07;1.83;;;;;;;;;;5078050;28;20175;-57
2023/03/10 11:31:41;;;;;;;3.33;2.03;;;;;;;;;;5086572;28;20261;-58
2023/03/10 11:34:29;;;;;;;5.23;2.20;;;;;;;;;;5085593;28;20264;-58
2023/03/10 11:37:15;;;;;;;6.47;2.37;;;;;;;;;;5083217;28;20635;-58
2023/03/10 11:39:47;;;;;;;3.53;1.70;;;;;;;;;;5085032;28;20530;-57
2023/03/10 11:42:28;;;;;;;1.57;1.47;;;;;;;;;;5088147;28;20259;-58
2023/03/10 11:45:03;;;;;;;3.90;1.93;;;;;;;;;;5081584;28;20175;-58
2023/03/10 11:47:50;;;;;;;2.27;1.50;;;;;;;;;;5081632;28;20210;-58
2023/03/10 11:50:20;;;;;;;4.37;1.97;;;;;;;;;;5083097;28;20186;-57
2023/03/10 11:52:47;;;;;;;1.70;1.60;;;;;;;;;;5084992;28;20635;-57
2023/03/10 11:55:21;;;;;;;3.00;2.00;;;;;;;;;;5082895;28;20172;-57
2023/03/10 11:57:48;;;;;;;3.23;1.80;;;;;;;;;;5088119;28;20160;-57
2023/03/10 12:00:27;;;;;;;1.90;1.50;;;;;;;;;;5081167;28;20172;-58
2023/03/10 12:03:06;;;;;;;3.17;1.63;;;;;;;;;;5087975;28;20539;-57
2023/03/10 12:05:38;;;;;;;1.70;1.60;;;;;;;;;;5088318;28;20176;-57
2023/03/10 12:08:05;;;;;;;1.93;1.20;;;;;;;;;;5081851;28;20183;-57
2023/03/10 12:10:33;;;;;;;4.83;1.67;;;;;;;;;;5089180;28;20206;-57
2023/03/10 12:13:00;;;;;;;3.20;1.57;;;;;;;;;;5089179;28;20222;-58
2023/03/10 12:15:35;;;;;;;2.53;1.50;;;;;;;;;;5087058;28;20259;-57
2023/03/10 12:18:05;;;;;;;2.10;1.20;;;;;;;;;;5088724;28;20191;-58
2023/03/10 12:20:32;;;;;;;1.53;1.43;;;;;;;;;;5088429;28;20183;-57
2023/03/10 12:23:19;;;;;;;1.93;1.17;;;;;;;;;;5089103;28;20702;-57
2023/03/10 12:25:45;;;;;;;1.57;1.27;;;;;;;;;;5071513;28;20195;-57
2023/03/10 12:28:11;;;;;;;1.47;1.37;;;;;;;;;;5088812;28;20186;-57
2023/03/10 12:30:49;;;;;;;2.80;1.40;;;;;;;;;;5088274;28;20160;-56
2023/03/10 12:33:36;;;;;;;1.90;1.40;;;;;;;;;;5087436;28;20235;-57
2023/03/10 12:36:05;;;;;;;2.47;1.57;;;;;;;;;;5078874;28;20190;-57
2023/03/10 12:38:45;;;;;;;1.67;1.40;;;;;;;;;;5077089;28;20172;-57
2023/03/10 12:41:12;;;;;;;2.37;1.50;;;;;;;;;;5088948;28;20623;-57
2023/03/10 12:43:38;;;;;;;3.00;1.93;;;;;;;;;;5089138;28;20203;-57
2023/03/10 12:46:06;;;;;;;1.60;1.50;;;;;;;;;;5079159;28;20532;-56
2023/03/10 12:48:34;;;;;;;2.73;1.47;;;;;;;;;;5077814;28;20628;-57
2023/03/10 12:51:03;;;;;;;4.37;1.53;;;;;;;;;;5089520;28;20163;-57
2023/03/10 12:53:29;;;;;;;1.43;1.37;;;;;;;;;;5084772;28;20195;-57
2023/03/10 12:56:11;;;;;;;4.57;2.07;;;;;;;;;;5097213;28;20187;-57
2023/03/10 12:58:38;;;;;;;4.10;1.70;;;;;;;;;;5093376;28;20282;-57
2023/03/10 13:01:06;;;;;;;3.13;1.43;;;;;;;;;;5086756;28;20635;-57
2023/03/10 13:03:34;;;;;;;1.63;1.53;;;;;;;;;;5085974;28;20499;-56
2023/03/10 13:06:08;;;;;;;2.47;1.50;;;;;;;;;;5089055;28;20179;-57
2023/03/10 13:08:43;;;;;;;2.10;1.10;;;;;;;;;;5088397;28;20209;-57
2023/03/10 13:11:12;;;;;;;3.37;1.33;;;;;;;;;;5086908;28;20202;-58
2023/03/10 13:13:39;;;;;;;1.40;1.23;;;;;;;;;;5082506;28;20238;-57
2023/03/10 13:16:06;;;;;;;7.50;1.87;;;;;;;;;;5074205;28;20710;-57
2023/03/10 13:18:33;;;;;;;2.43;1.57;;;;;;;;;;5085921;28;20584;-56
2023/03/10 13:21:01;;;;;;;1.80;1.47;;;;;;;;;;5083573;28;20658;-57
2023/03/10 13:23:28;;;;;;;2.60;1.53;;;;;;;;;;5073705;28;20183;-57
2023/03/10 13:25:55;;;;;;;1.80;1.70;;;;;;;;;;5078601;28;20556;-57
2023/03/10 13:28:22;;;;;;;2.27;1.43;;;;;;;;;;5074714;28;20224;-57
2023/03/10 13:30:48;;;;;;;1.63;1.50;;;;;;;;;;5087127;28;20187;-57
2023/03/10 13:33:22;;;;;;;1.97;1.50;;;;;;;;;;5087441;28;20231;-57
2023/03/10 13:35:48;;;;;;;1.60;1.40;;;;;;;;;;5082216;28;20532;-52
2023/03/10 13:38:16;;;;;;;1.50;1.40;;;;;;;;;;5088672;28;20591;-52
2023/03/10 13:40:44;;;;;;;1.47;1.33;;;;;;;;;;5088000;28;20665;-53
2023/03/10 13:43:28;;;;;;;1.50;1.40;;;;;;;;;;5087703;28;20824;-53
2023/03/10 13:45:55;;;;;;;1.43;1.33;;;;;;;;;;5083528;28;20639;-53
2023/03/10 13:48:22;;;;;;;1.50;1.40;;;;;;;;;;5083433;28;20644;-53
2023/03/10 13:51:02;;;;;;;1.40;1.30;;;;;;;;;;5087953;28;20191;-53
2023/03/10 13:53:28;;;;;;;2.37;1.40;;;;;;;;;;5064202;28;20604;-52
2023/03/10 13:55:56;;;;;;;1.50;1.40;;;;;;;;;;5077033;28;20180;-53
2023/03/10 13:58:22;;;;;;;1.40;1.30;;;;;;;;;;5087474;28;20257;-52
2023/03/10 14:00:49;;;;;;;1.53;1.43;;;;;;;;;;5086574;28;20179;-53
2023/03/10 14:03:16;;;;;;;1.83;1.73;;;;;;;;;;5085850;28;20187;-52
2023/03/10 14:05:44;;;;;;;1.73;1.50;;;;;;;;;;5085565;28;20201;-53
2023/03/10 14:08:17;;;;;;;2.03;1.87;;;;;;;;;;5073661;28;20172;-53
2023/03/10 14:10:43;;;;;;;2.77;1.70;;;;;;;;;;5086748;28;20242;-52
2023/03/10 14:13:29;;;;;;;2.87;1.50;;;;;;;;;;5084830;28;20207;-53
2023/03/10 14:15:55;;;;;;;1.77;1.63;;;;;;;;;;5085918;28;20643;-52
2023/03/10 14:18:21;;;;;;;1.70;1.60;;;;;;;;;;5083053;28;20641;-53
2023/03/10 14:20:47;;;;;;;1.67;1.57;;;;;;;;;;5082067;28;20294;-52
2023/03/10 14:23:22;;;;;;;1.80;1.70;;;;;;;;;;5082487;28;20214;-52
2023/03/10 14:25:50;;;;;;;1.50;1.40;;;;;;;;;;5086575;28;20622;-53
2023/03/10 14:28:27;;;;;;;3.33;1.30;;;;;;;;;;5086676;28;20290;-52
2023/03/10 14:30:53;;;;;;;1.60;1.50;;;;;;;;;;5084674;28;20581;-53
2023/03/10 14:33:19;;;;;;;1.57;1.47;;;;;;;;;;5083912;28;21141;-53
2023/03/10 14:35:46;;;;;;;1.10;1.10;;;;;;;;;;5079262;28;20176;-52
2023/03/10 14:38:12;;;;;;;1.50;1.37;;;;;;;;;;5084162;28;21182;-52
2023/03/10 14:40:40;;;;;;;1.57;1.30;;;;;;;;;;5080388;28;20202;-53
2023/03/10 14:43:06;;;;;;;2.50;1.30;;;;;;;;;;5088084;28;20176;-53
2023/03/10 14:45:33;;;;;;;1.70;1.50;;;;;;;;;;5081069;28;20179;-53
2023/03/10 14:48:01;;;;;;;1.20;1.20;;;;;;;;;;5078979;28;20176;-52
2023/03/10 14:50:28;;;;;;;1.20;1.20;;;;;;;;;;5065001;28;20199;-52
2023/03/10 14:52:54;;;;;;;1.50;1.40;;;;;;;;;;5084639;28;20180;-52